Time;durP1;ratioP1;P1;durP2;ratioP2;P2;SDS_P1;SDS_P2;PMS_P1;PMS_P2;Temp;Humidity;BMP_temperature;BMP_pressure;BME280_temperature;BME280_humidity;BME280_pressure;Samples;Min_cycle;Max_cycle;Signal;HPM_P1;HPM_P2
2022/06/20 00:01:00;;;;;;;2.85;0.98;;;15.40;71.30;;;;;;5080813;28;20115;-71
2022/06/20 00:03:41;;;;;;;3.55;0.95;;;15.40;71.30;;;;;;5086072;28;20035;-71
2022/06/20 00:06:12;;;;;;;2.92;0.88;;;15.30;71.20;;;;;;5081475;28;20024;-71
2022/06/20 00:08:38;;;;;;;4.63;1.08;;;15.30;71.30;;;;;;5085026;28;20028;-70
2022/06/20 00:11:04;;;;;;;2.60;0.98;;;15.30;71.30;;;;;;5099325;28;20034;-70
2022/06/20 00:13:34;;;;;;;3.20;1.10;;;15.30;71.40;;;;;;5088339;28;20024;-70
2022/06/20 00:16:01;;;;;;;4.53;0.95;;;15.30;71.50;;;;;;5086753;28;20471;-71
2022/06/20 00:18:28;;;;;;;2.90;1.20;;;15.20;71.60;;;;;;5074668;28;20025;-70
2022/06/20 00:20:54;;;;;;;2.55;1.23;;;15.20;71.70;;;;;;5085630;28;20474;-70
2022/06/20 00:23:20;;;;;;;2.85;1.05;;;15.20;71.70;;;;;;5080823;28;20024;-70
2022/06/20 00:25:45;;;;;;;2.55;1.10;;;15.20;71.70;;;;;;5092497;28;20042;-70
2022/06/20 00:28:12;;;;;;;2.25;1.00;;;15.20;71.70;;;;;;5092411;28;20076;-70
2022/06/20 00:30:38;;;;;;;4.05;1.20;;;15.20;71.70;;;;;;5082691;28;20113;-70
2022/06/20 00:33:05;;;;;;;3.65;1.30;;;15.10;71.70;;;;;;5085185;28;20556;-70
2022/06/20 00:35:32;;;;;;;3.25;1.23;;;15.10;71.80;;;;;;5084747;28;20070;-71
2022/06/20 00:37:58;;;;;;;5.05;1.45;;;15.10;71.90;;;;;;5084981;28;20027;-71
2022/06/20 00:40:35;;;;;;;3.83;1.15;;;15.10;72.00;;;;;;5099685;28;20028;-70
2022/06/20 00:43:01;;;;;;;4.45;1.15;;;15.00;72.10;;;;;;5072900;28;20043;-70
2022/06/20 00:45:33;;;;;;;2.47;1.10;;;15.00;72.20;;;;;;5085389;28;20035;-69
2022/06/20 00:48:05;;;;;;;3.72;1.00;;;14.90;72.40;;;;;;5077224;28;20056;-68
2022/06/20 00:50:32;;;;;;;3.33;1.20;;;14.90;72.50;;;;;;5102176;28;20031;-69
2022/06/20 00:53:12;;;;;;;3.13;1.10;;;14.90;72.50;;;;;;5086663;28;20016;-69
2022/06/20 00:55:46;;;;;;;3.60;1.20;;;14.90;72.40;;;;;;5096851;28;20035;-70
2022/06/20 00:58:36;;;;;;;3.15;1.02;;;15.00;72.40;;;;;;5085856;28;20059;-71
2022/06/20 01:01:02;;;;;;;2.95;1.10;;;15.00;72.30;;;;;;5089024;28;20058;-71
2022/06/20 01:03:33;;;;;;;2.72;1.02;;;15.00;72.20;;;;;;5087463;28;20031;-71
2022/06/20 01:06:10;;;;;;;3.93;1.10;;;15.00;72.30;;;;;;5088219;28;20028;-71
2022/06/20 01:08:43;;;;;;;4.97;1.05;;;15.00;72.30;;;;;;5091489;28;20078;-74
2022/06/20 01:11:21;;;;;;;2.22;0.95;;;15.00;72.30;;;;;;5087622;28;20020;-73
2022/06/20 01:13:47;;;;;;;3.08;1.20;;;15.00;72.40;;;;;;5092233;28;20394;-73
2022/06/20 01:16:12;;;;;;;2.42;1.08;;;15.00;72.30;;;;;;5095747;28;20020;-74
2022/06/20 01:18:40;;;;;;;2.25;0.90;;;15.00;72.20;;;;;;5096289;28;20024;-73
2022/06/20 01:21:13;;;;;;;2.63;1.02;;;15.00;72.20;;;;;;5091980;28;20028;-73
2022/06/20 01:23:41;;;;;;;2.75;0.90;;;15.00;72.30;;;;;;5094893;28;20114;-73
2022/06/20 01:26:12;;;;;;;3.22;1.17;;;15.00;72.30;;;;;;5090975;28;20028;-72
2022/06/20 01:28:42;;;;;;;4.28;1.10;;;15.00;72.40;;;;;;5098184;28;20119;-71
2022/06/20 01:31:09;;;;;;;2.95;1.10;;;15.00;72.50;;;;;;5104104;27;20024;-72
2022/06/20 01:33:36;;;;;;;4.82;1.60;;;15.00;72.50;;;;;;5097688;27;20032;-70
2022/06/20 01:38:47;;;;;;;3.45;1.15;;;14.80;72.90;;;;;;5093235;28;20067;-71
2022/06/20 01:44:01;;;;;;;6.82;2.58;;;14.90;72.80;;;;;;5100102;28;20047;-72
2022/06/20 01:46:31;;;;;;;4.47;1.70;;;14.90;72.70;;;;;;5088802;28;20023;-71
2022/06/20 01:49:10;;;;;;;3.40;1.40;;;14.90;72.70;;;;;;5088428;28;20114;-71
2022/06/20 01:51:46;;;;;;;3.72;1.35;;;14.90;72.60;;;;;;5095415;28;20410;-71
2022/06/20 01:54:15;;;;;;;2.58;1.08;;;15.00;72.60;;;;;;5086474;27;20054;-71
2022/06/20 01:56:42;;;;;;;3.97;1.15;;;15.00;72.50;;;;;;5103684;28;20027;-71
2022/06/20 01:59:16;;;;;;;2.70;1.00;;;15.10;72.50;;;;;;5092207;28;20016;-71
2022/06/20 02:01:41;;;;;;;2.28;1.05;;;15.10;72.40;;;;;;5097162;28;20478;-70
2022/06/20 02:04:13;;;;;;;2.13;1.00;;;15.10;72.40;;;;;;5086199;28;20019;-69
2022/06/20 02:06:39;;;;;;;3.35;1.35;;;15.10;72.50;;;;;;5101649;28;20095;-70
2022/06/20 02:09:06;;;;;;;2.72;1.00;;;15.10;72.50;;;;;;5089009;27;20107;-70
2022/06/20 02:11:38;;;;;;;2.95;1.10;;;15.10;72.50;;;;;;5092446;28;20643;-70
2022/06/20 02:14:08;;;;;;;1.85;0.90;;;15.00;72.60;;;;;;5095437;28;20043;-70
2022/06/20 02:16:35;;;;;;;2.40;1.00;;;15.10;72.70;;;;;;5086776;28;20063;-70
2022/06/20 02:19:04;;;;;;;3.75;1.02;;;15.00;72.80;;;;;;5079399;28;20032;-72
2022/06/20 02:21:32;;;;;;;2.45;1.02;;;15.00;73.00;;;;;;5093453;28;20036;-71
2022/06/20 02:24:14;;;;;;;2.13;1.05;;;15.00;72.90;;;;;;5081441;28;20024;-70
2022/06/20 02:26:42;;;;;;;3.63;1.20;;;15.00;72.90;;;;;;5094679;28;20027;-70
2022/06/20 02:29:20;;;;;;;2.10;0.90;;;15.00;72.80;;;;;;5086788;28;20657;-69
2022/06/20 02:31:47;;;;;;;2.55;1.10;;;15.00;72.80;;;;;;5089722;28;20035;-69
2022/06/20 02:34:13;;;;;;;2.25;0.95;;;15.00;72.90;;;;;;5095829;28;20067;-69
2022/06/20 02:36:39;;;;;;;3.08;1.05;;;15.00;72.90;;;;;;5095098;28;20103;-69
2022/06/20 02:39:05;;;;;;;3.25;1.10;;;15.00;72.80;;;;;;5078872;28;20020;-69
2022/06/20 02:41:31;;;;;;;3.17;0.98;;;15.10;72.80;;;;;;5084974;28;20031;-70
2022/06/20 02:44:04;;;;;;;1.65;0.85;;;15.10;72.70;;;;;;5082379;28;20047;-70
2022/06/20 02:46:31;;;;;;;2.60;1.20;;;15.00;72.80;;;;;;5090945;28;20474;-69
2022/06/20 02:48:59;;;;;;;2.65;1.00;;;15.00;72.90;;;;;;5084748;28;20024;-69
2022/06/20 02:51:30;;;;;;;2.78;1.20;;;15.00;73.10;;;;;;5086702;28;20023;-70
2022/06/20 02:53:58;;;;;;;3.05;1.38;;;15.00;73.20;;;;;;5096673;28;20474;-69
2022/06/20 02:56:27;;;;;;;3.33;1.25;;;15.00;73.20;;;;;;5086557;28;20472;-69
2022/06/20 02:59:05;;;;;;;4.00;1.10;;;15.00;73.50;;;;;;5084143;28;20024;-69
2022/06/20 03:01:44;;;;;;;4.28;1.00;;;15.00;73.50;;;;;;5085190;28;20031;-69
2022/06/20 03:04:10;;;;;;;3.15;1.02;;;15.00;73.40;;;;;;5092593;28;20024;-69
2022/06/20 03:07:04;;;;;;;3.33;1.08;;;15.00;73.30;;;;;;5096554;28;20028;-69
2022/06/20 03:09:33;;;;;;;2.50;1.05;;;15.00;73.40;;;;;;5074549;28;20051;-69
2022/06/20 03:12:01;;;;;;;2.67;1.08;;;15.00;73.40;;;;;;5096419;28;20011;-70
2022/06/20 03:14:37;;;;;;;2.70;1.20;;;14.90;73.40;;;;;;5091772;28;20101;-70
2022/06/20 03:17:05;;;;;;;2.70;0.98;;;14.80;73.50;;;;;;5094557;28;20012;-70
2022/06/20 03:19:34;;;;;;;1.90;1.08;;;14.80;73.60;;;;;;5088670;28;20051;-69
2022/06/20 03:22:04;;;;;;;2.63;1.30;;;14.70;73.60;;;;;;5095039;28;20023;-70
2022/06/20 03:24:31;;;;;;;2.40;1.20;;;14.60;73.80;;;;;;5089975;28;20059;-70
2022/06/20 03:26:59;;;;;;;1.98;1.00;;;14.50;73.90;;;;;;5093179;28;20020;-70
2022/06/20 03:29:25;;;;;;;2.55;0.90;;;14.50;74.10;;;;;;5086107;28;20034;-70
2022/06/20 03:31:52;;;;;;;1.75;1.20;;;14.50;74.20;;;;;;5077487;28;20040;-70
2022/06/20 03:34:18;;;;;;;1.40;1.00;;;14.40;74.30;;;;;;5083827;28;20024;-70
2022/06/20 03:36:47;;;;;;;3.80;1.27;;;14.40;74.40;;;;;;5087133;28;20025;-70
2022/06/20 03:39:13;;;;;;;3.50;1.40;;;14.40;74.60;;;;;;5091681;28;20020;-71
2022/06/20 03:41:39;;;;;;;3.28;1.30;;;14.30;74.60;;;;;;5074940;28;20027;-70
2022/06/20 03:44:15;;;;;;;2.55;1.20;;;14.30;74.70;;;;;;5085634;28;20476;-71
2022/06/20 03:46:53;;;;;;;3.72;1.40;;;14.30;74.80;;;;;;5083404;28;20113;-71
2022/06/20 03:49:22;;;;;;;2.55;1.10;;;14.40;74.80;;;;;;5089280;28;20047;-70
2022/06/20 03:51:56;;;;;;;3.95;1.42;;;14.30;74.80;;;;;;5085345;28;20031;-69
2022/06/20 03:54:38;;;;;;;1.70;1.20;;;14.30;74.80;;;;;;5092422;28;20097;-68
2022/06/20 03:57:06;;;;;;;2.97;1.00;;;14.30;74.80;;;;;;5083015;28;20016;-69
2022/06/20 03:59:45;;;;;;;3.20;1.10;;;14.30;74.80;;;;;;5086281;28;20047;-69
2022/06/20 04:02:34;;;;;;;3.08;1.40;;;14.30;74.80;;;;;;5088113;28;20032;-69
2022/06/20 04:05:29;;;;;;;1.60;1.10;;;14.30;74.80;;;;;;5086118;28;20034;-69
2022/06/20 04:08:01;;;;;;;4.43;1.30;;;14.30;74.80;;;;;;5057489;28;20043;-68
2022/06/20 04:13:34;;;;;;;2.63;1.02;;;14.40;74.80;;;;;;5092483;28;20094;-68
2022/06/20 04:16:06;;;;;;;;;;;14.40;74.60;;;;;;5090708;28;20025;-69
2022/06/20 04:18:49;;;;;;;1.52;1.17;;;14.50;74.40;;;;;;5078018;28;20003;-69
2022/06/20 04:21:33;;;;;;;2.63;1.35;;;14.50;74.40;;;;;;5078759;28;20036;-70
2022/06/20 04:24:39;;;;;;;2.67;1.20;;;14.60;74.30;;;;;;5087519;28;20034;-70
2022/06/20 04:27:11;;;;;;;2.78;1.20;;;14.70;74.20;;;;;;5075415;28;20066;-70
2022/06/20 04:30:10;;;;;;;2.72;1.30;;;14.70;74.10;;;;;;5089489;28;20414;-69
2022/06/20 04:33:10;;;;;;;2.92;1.30;;;14.80;74.00;;;;;;5058523;28;20047;-70
2022/06/20 04:35:43;;;;;;;3.13;1.25;;;14.90;73.80;;;;;;5084887;28;20052;-71
2022/06/20 04:38:12;;;;;;;4.25;1.50;;;15.00;73.80;;;;;;5073886;28;20024;-71
2022/06/20 04:40:45;;;;;;;2.67;1.50;;;15.00;73.70;;;;;;5082561;28;20028;-72
2022/06/20 04:43:24;;;;;;;2.35;1.20;;;15.00;73.70;;;;;;5094459;28;20058;-71
2022/06/20 04:45:58;;;;;;;2.40;1.40;;;15.10;73.60;;;;;;5081507;28;20474;-71
2022/06/20 04:48:25;;;;;;;4.65;1.40;;;15.20;73.50;;;;;;5088945;28;20034;-69
2022/06/20 04:50:56;;;;;;;5.53;1.35;;;15.20;73.40;;;;;;5084588;28;20067;-70
2022/06/20 04:53:26;;;;;;;1.70;1.00;;;15.30;73.20;;;;;;5099858;28;20024;-68
2022/06/20 04:55:55;;;;;;;3.45;1.30;;;15.50;72.80;;;;;;5084590;28;20032;-70
2022/06/20 04:58:36;;;;;;;4.20;1.50;;;15.80;72.40;;;;;;5088500;28;20031;-70
2022/06/20 05:01:02;;;;;;;2.92;1.20;;;16.00;71.80;;;;;;5091605;28;20028;-68
2022/06/20 05:03:37;;;;;;;2.60;1.08;;;16.20;71.30;;;;;;5098209;28;20032;-68
2022/06/20 05:06:06;;;;;;;4.18;1.40;;;16.40;70.90;;;;;;5072954;28;20035;-69
2022/06/20 05:08:43;;;;;;;2.20;0.93;;;16.60;70.30;;;;;;5077465;28;20025;-69
2022/06/20 05:11:24;;;;;;;2.72;0.93;;;16.80;69.90;;;;;;5079038;28;20037;-69
2022/06/20 05:14:06;;;;;;;3.88;1.48;;;17.10;69.30;;;;;;5079507;28;20020;-69
2022/06/20 05:16:37;;;;;;;2.80;1.48;;;17.50;68.80;;;;;;5085901;28;20039;-69
2022/06/20 05:19:12;;;;;;;3.38;1.52;;;17.80;67.80;;;;;;5080071;28;20021;-68
2022/06/20 05:21:43;;;;;;;2.92;1.33;;;18.10;67.70;;;;;;5083360;28;20066;-69
2022/06/20 05:24:19;;;;;;;3.38;1.38;;;18.40;66.30;;;;;;5077361;28;20013;-69
2022/06/20 05:26:48;;;;;;;2.90;1.20;;;18.90;65.70;;;;;;5078918;28;20026;-69
2022/06/20 05:29:23;;;;;;;2.28;1.17;;;18.90;65.10;;;;;;5085722;28;20355;-69
2022/06/20 05:31:52;;;;;;;3.75;1.38;;;19.20;65.10;;;;;;5080756;28;20460;-70
2022/06/20 05:34:24;;;;;;;2.92;1.27;;;19.20;64.80;;;;;;5081413;28;20024;-69
2022/06/20 05:37:15;;;;;;;3.53;1.25;;;19.00;64.80;;;;;;5083653;28;20027;-69
2022/06/20 05:39:47;;;;;;;4.82;1.55;;;18.70;65.30;;;;;;5081958;28;20028;-68
2022/06/20 05:42:16;;;;;;;2.25;1.10;;;18.50;65.70;;;;;;5086975;28;20479;-68
2022/06/20 05:44:41;;;;;;;2.35;1.05;;;18.30;66.20;;;;;;5081395;28;20055;-68
2022/06/20 05:47:19;;;;;;;3.92;1.30;;;18.20;66.50;;;;;;5085772;28;20059;-68
2022/06/20 05:49:51;;;;;;;3.03;1.15;;;18.10;66.60;;;;;;5110058;28;20053;-68
2022/06/20 05:52:24;;;;;;;3.97;1.13;;;18.00;66.80;;;;;;5102814;28;20464;-68
2022/06/20 05:54:59;;;;;;;3.13;1.20;;;18.00;66.80;;;;;;5092300;28;20081;-68
2022/06/20 05:57:27;;;;;;;1.50;0.95;;;17.80;67.00;;;;;;5075424;28;20016;-68
2022/06/20 05:59:58;;;;;;;2.47;1.13;;;17.80;67.20;;;;;;5076747;28;20107;-68
2022/06/20 06:02:41;;;;;;;2.15;1.00;;;17.90;67.20;;;;;;5093207;28;20046;-68
2022/06/20 06:05:26;;;;;;;1.70;1.10;;;18.10;67.00;;;;;;5086229;28;20024;-68
2022/06/20 06:08:00;;;;;;;3.88;1.25;;;18.30;66.60;;;;;;5097097;28;20035;-69
2022/06/20 06:10:40;;;;;;;3.95;1.40;;;18.40;66.00;;;;;;5108359;28;20504;-69
2022/06/20 06:13:08;;;;;;;2.85;1.02;;;18.30;65.70;;;;;;5091102;28;20031;-69
2022/06/20 06:15:41;;;;;;;2.35;1.30;;;18.30;65.80;;;;;;5089623;28;20105;-69
2022/06/20 06:18:13;;;;;;;4.03;1.17;;;18.30;65.70;;;;;;5091883;28;20091;-69
2022/06/20 06:20:44;;;;;;;3.58;1.25;;;18.30;65.50;;;;;;5092614;28;20020;-69
2022/06/20 06:23:12;;;;;;;2.58;1.20;;;18.40;65.30;;;;;;5092740;28;20077;-68
2022/06/20 06:25:42;;;;;;;3.55;1.48;;;18.70;64.90;;;;;;5092622;28;20110;-68
2022/06/20 06:28:20;;;;;;;2.97;1.30;;;18.90;64.40;;;;;;5092339;28;20020;-68
2022/06/20 06:31:00;;;;;;;3.72;1.33;;;19.10;63.50;;;;;;5077032;28;20024;-68
2022/06/20 06:33:34;;;;;;;2.72;1.15;;;19.10;62.80;;;;;;5084075;28;20025;-68
2022/06/20 06:36:21;;;;;;;3.42;1.10;;;19.10;63.00;;;;;;5096541;28;20030;-69
2022/06/20 06:38:52;;;;;;;2.95;1.00;;;19.10;62.80;;;;;;5099370;28;20500;-69
2022/06/20 06:41:28;;;;;;;3.45;1.38;;;19.00;62.70;;;;;;5082958;28;20028;-68
2022/06/20 06:43:55;;;;;;;3.75;1.20;;;18.80;62.90;;;;;;5093259;28;20027;-68
2022/06/20 06:46:27;;;;;;;2.00;1.17;;;18.70;63.20;;;;;;5101909;28;20043;-69
2022/06/20 06:49:28;;;;;;;2.78;1.60;;;18.40;63.40;;;;;;5086724;28;20481;-69
2022/06/20 06:52:07;;;;;;;4.00;1.13;;;18.30;63.80;;;;;;5073507;28;20043;-69
2022/06/20 06:54:41;;;;;;;4.00;1.30;;;18.40;63.90;;;;;;5097202;28;20024;-69
2022/06/20 06:57:19;;;;;;;2.22;1.17;;;18.70;63.50;;;;;;5110490;28;20027;-69
2022/06/20 07:00:21;;;;;;;3.22;1.50;;;19.00;63.30;;;;;;5097283;28;20063;-69
2022/06/20 07:02:58;;;;;;;4.32;1.67;;;19.30;62.80;;;;;;5099191;28;20039;-69
2022/06/20 07:05:45;;;;;;;4.10;1.67;;;19.40;61.70;;;;;;5097392;28;20024;-69
2022/06/20 07:08:19;;;;;;;3.30;1.40;;;19.20;61.80;;;;;;5078775;28;20382;-69
2022/06/20 07:10:57;;;;;;;4.28;1.77;;;19.10;62.20;;;;;;5083589;28;20027;-69
2022/06/20 07:13:43;;;;;;;4.15;1.70;;;19.20;62.00;;;;;;5093547;28;20062;-69
2022/06/20 07:16:20;;;;;;;2.50;1.65;;;19.10;61.90;;;;;;5092289;28;20040;-68
2022/06/20 07:18:49;;;;;;;3.58;2.00;;;19.20;62.00;;;;;;5104294;28;20026;-69
2022/06/20 07:21:20;;;;;;;4.07;1.80;;;19.30;61.80;;;;;;5102439;28;20088;-69
2022/06/20 07:23:58;;;;;;;4.20;1.88;;;19.30;61.40;;;;;;5091522;28;20032;-69
2022/06/20 07:26:28;;;;;;;4.65;1.70;;;19.40;61.00;;;;;;5088401;28;20598;-68
2022/06/20 07:29:07;;;;;;;4.07;1.52;;;19.30;60.60;;;;;;5078970;28;20106;-68
2022/06/20 07:32:05;;;;;;;3.67;1.70;;;19.30;60.60;;;;;;5083154;28;20505;-69
2022/06/20 07:34:46;;;;;;;4.45;1.70;;;19.40;60.20;;;;;;5080048;28;20100;-68
2022/06/20 07:37:25;;;;;;;4.43;1.95;;;19.40;60.00;;;;;;5080295;28;20021;-68
2022/06/20 07:40:22;;;;;;;2.55;1.38;;;19.40;59.10;;;;;;5079800;28;20017;-68
2022/06/20 07:43:20;;;;;;;3.70;1.70;;;19.70;59.00;;;;;;5081470;28;20027;-68
2022/06/20 07:45:48;;;;;;;4.40;1.67;;;19.80;58.30;;;;;;5071815;28;20109;-68
2022/06/20 07:48:23;;;;;;;2.70;1.50;;;20.10;57.90;;;;;;5085257;28;20070;-68
2022/06/20 07:50:51;;;;;;;3.78;1.50;;;20.10;57.30;;;;;;5079210;28;20036;-68
2022/06/20 07:53:29;;;;;;;2.58;1.52;;;20.00;57.20;;;;;;5079875;28;20013;-68
2022/06/20 07:55:59;;;;;;;2.70;1.67;;;19.90;57.30;;;;;;5082507;28;20023;-68
2022/06/20 07:58:34;;;;;;;5.80;1.90;;;19.70;57.80;;;;;;5103094;28;20448;-68
2022/06/20 08:01:06;;;;;;;4.22;1.92;;;19.70;57.90;;;;;;5091605;28;20104;-67
2022/06/20 08:03:43;;;;;;;;;;;19.90;57.70;;;;;;5095997;28;20015;-67
2022/06/20 08:06:25;;;;;;;4.35;1.90;;;20.10;57.60;;;;;;5088371;28;19994;-67
2022/06/20 08:08:59;;;;;;;3.65;1.75;;;20.10;55.90;;;;;;5086697;28;20054;-67
2022/06/20 08:11:51;;;;;;;2.42;1.40;;;20.20;55.30;;;;;;5086142;28;20036;-67
2022/06/20 08:14:27;;;;;;;;;;;20.30;55.40;;;;;;5075712;28;20024;-67
2022/06/20 08:16:57;;;;;;;5.50;1.90;;;20.30;54.30;;;;;;5102053;28;19904;-67
2022/06/20 08:19:23;;;;;;;2.50;1.50;;;20.30;53.70;;;;;;5104056;28;20119;-67
2022/06/20 08:21:57;;;;;;;4.47;1.80;;;20.50;53.60;;;;;;5088072;28;20435;-67
2022/06/20 08:24:34;;;;;;;4.88;1.88;;;20.40;53.00;;;;;;5101309;28;20035;-67
2022/06/20 08:27:09;;;;;;;3.65;1.73;;;20.40;53.40;;;;;;5093457;28;20016;-67
2022/06/20 08:29:41;;;;;;;3.42;1.80;;;20.20;54.00;;;;;;5093307;28;20028;-67
2022/06/20 08:32:14;;;;;;;3.40;1.65;;;20.40;54.20;;;;;;5083305;28;20481;-67
2022/06/20 08:34:48;;;;;;;5.75;1.80;;;20.70;54.10;;;;;;5085970;28;20023;-67
2022/06/20 08:37:19;;;;;;;4.00;1.60;;;20.80;53.00;;;;;;5110548;28;20030;-67
2022/06/20 08:39:50;;;;;;;4.38;1.90;;;20.90;52.10;;;;;;5110693;28;20038;-67
2022/06/20 08:42:55;;;;;;;5.47;2.00;;;21.00;50.70;;;;;;5080975;28;20055;-67
2022/06/20 08:45:30;;;;;;;5.43;1.80;;;21.00;50.40;;;;;;5105581;28;20304;-67
2022/06/20 08:48:14;;;;;;;5.00;1.90;;;20.80;50.00;;;;;;5083613;28;20034;-67
2022/06/20 08:51:00;;;;;;;3.45;1.55;;;20.70;50.30;;;;;;5086724;28;20070;-67
2022/06/20 08:53:55;;;;;;;2.70;1.30;;;20.80;50.40;;;;;;5084883;28;20031;-67
2022/06/20 08:56:33;;;;;;;3.65;1.30;;;20.90;49.80;;;;;;5089660;28;20035;-67
2022/06/20 08:59:05;;;;;;;3.75;1.70;;;21.30;49.60;;;;;;5089914;28;20115;-67
2022/06/20 09:01:37;;;;;;;4.75;1.60;;;21.50;48.70;;;;;;5092933;28;20016;-67
2022/06/20 09:04:26;;;;;;;3.25;1.38;;;21.50;48.70;;;;;;5096718;28;20134;-67
2022/06/20 09:07:18;;;;;;;2.88;1.17;;;21.50;47.20;;;;;;5092291;28;20070;-67
2022/06/20 09:09:49;;;;;;;2.50;1.30;;;21.40;47.00;;;;;;5074801;28;20047;-67
2022/06/20 09:12:31;;;;;;;4.55;1.88;;;21.40;46.40;;;;;;5093101;28;20103;-67
2022/06/20 09:14:56;;;;;;;;;;;21.40;47.20;;;;;;5093544;28;21730;-67
2022/06/20 09:17:37;;;;;;;4.03;1.63;;;21.50;48.10;;;;;;5100727;28;19908;-67
2022/06/20 09:20:13;;;;;;;4.05;2.13;;;21.60;48.50;;;;;;5096905;28;20024;-67
2022/06/20 09:23:24;;;;;;;2.42;1.52;;;21.70;48.80;;;;;;5091989;28;20107;-67
2022/06/20 09:26:02;;;;;;;4.55;1.63;;;21.70;47.50;;;;;;5052079;28;20036;-67
2022/06/20 09:28:49;;;;;;;3.30;1.50;;;21.70;47.20;;;;;;5093400;28;20402;-67
2022/06/20 09:31:57;;;;;;;2.85;1.40;;;21.80;47.50;;;;;;5098792;28;20031;-67
2022/06/20 09:34:52;;;;;;;3.45;1.58;;;21.90;47.50;;;;;;5107206;28;20012;-67
2022/06/20 09:37:45;;;;;;;4.10;1.67;;;21.90;47.40;;;;;;5087169;28;20031;-67
2022/06/20 09:40:31;;;;;;;3.65;1.52;;;22.00;47.60;;;;;;5097888;28;20081;-67
2022/06/20 09:43:27;;;;;;;4.68;1.75;;;22.10;47.90;;;;;;5105513;28;20025;-67
2022/06/20 09:46:16;;;;;;;3.72;1.70;;;21.90;47.60;;;;;;5072882;28;20047;-67
2022/06/20 09:49:12;;;;;;;2.63;1.30;;;21.80;47.50;;;;;;5095559;28;20051;-67
2022/06/20 09:51:59;;;;;;;3.58;1.70;;;21.80;47.10;;;;;;5105337;28;20135;-67
2022/06/20 09:54:52;;;;;;;4.25;1.67;;;21.90;47.50;;;;;;5095874;28;20533;-67
2022/06/20 09:57:28;;;;;;;3.08;1.17;;;21.80;47.00;;;;;;5086255;28;20074;-67
2022/06/20 10:00:06;;;;;;;3.63;1.60;;;21.70;47.30;;;;;;5099426;28;20034;-67
2022/06/20 10:02:51;;;;;;;3.40;1.50;;;21.60;47.00;;;;;;5108881;28;20142;-67
2022/06/20 10:05:32;;;;;;;8.05;2.05;;;21.50;47.40;;;;;;5082001;28;20058;-67
2022/06/20 10:08:06;;;;;;;4.05;1.60;;;21.50;48.40;;;;;;5100349;28;20024;-67
2022/06/20 10:10:40;;;;;;;2.60;1.27;;;21.50;47.90;;;;;;5093497;28;20035;-67
2022/06/20 10:13:37;;;;;;;3.80;1.30;;;21.50;48.70;;;;;;5086211;28;20059;-67
2022/06/20 10:16:11;;;;;;;3.20;1.40;;;21.60;47.60;;;;;;5084519;28;20462;-67
2022/06/20 10:18:53;;;;;;;3.33;1.30;;;21.80;47.20;;;;;;5094782;28;20378;-67
2022/06/20 10:21:26;;;;;;;5.28;1.60;;;21.80;46.10;;;;;;5086355;28;20447;-67
2022/06/20 10:24:29;;;;;;;2.83;1.40;;;22.00;45.90;;;;;;5093917;28;20710;-67
2022/06/20 10:27:06;;;;;;;2.85;1.42;;;22.10;45.80;;;;;;5103557;28;20024;-67
2022/06/20 10:30:09;;;;;;;2.88;1.50;;;21.90;45.50;;;;;;5084840;28;20074;-68
2022/06/20 10:33:07;;;;;;;3.03;1.17;;;21.90;45.40;;;;;;5091950;28;20035;-67
2022/06/20 10:35:38;;;;;;;3.33;1.42;;;22.10;44.30;;;;;;5091783;28;20057;-67
2022/06/20 10:38:11;;;;;;;1.60;0.93;;;22.10;44.10;;;;;;5093082;28;20104;-67
2022/06/20 10:40:49;;;;;;;2.55;1.20;;;22.20;44.40;;;;;;5091360;28;20082;-68
2022/06/20 10:43:47;;;;;;;1.48;1.10;;;22.40;43.00;;;;;;5095940;27;20076;-67
2022/06/20 10:46:23;;;;;;;4.13;1.33;;;22.50;42.70;;;;;;5045885;28;20494;-67
2022/06/20 10:49:02;;;;;;;4.82;1.40;;;22.50;42.60;;;;;;5087741;28;20078;-67
2022/06/20 10:51:34;;;;;;;2.15;1.00;;;22.60;43.50;;;;;;5088174;28;20141;-67
2022/06/20 10:54:29;;;;;;;2.03;0.95;;;22.70;42.80;;;;;;5090176;28;20024;-67
2022/06/20 10:57:21;;;;;;;3.20;1.30;;;23.00;42.50;;;;;;5100539;28;20019;-68
2022/06/20 11:00:12;;;;;;;2.88;1.35;;;22.90;41.20;;;;;;5093798;28;20024;-67
2022/06/20 11:03:08;;;;;;;2.72;1.10;;;22.80;41.00;;;;;;5087549;28;20039;-68
2022/06/20 11:06:02;;;;;;;2.00;0.90;;;22.60;41.50;;;;;;5100151;28;20028;-67
2022/06/20 11:08:52;;;;;;;1.55;0.90;;;22.50;41.90;;;;;;5085333;28;20023;-68
2022/06/20 11:11:42;;;;;;;2.53;1.08;;;22.70;41.90;;;;;;5097016;28;20098;-68
2022/06/20 11:14:43;;;;;;;1.42;0.88;;;22.70;41.70;;;;;;5093617;28;20019;-68
2022/06/20 11:17:34;;;;;;;2.50;1.40;;;22.80;41.90;;;;;;5071415;28;20084;-68
2022/06/20 11:20:30;;;;;;;2.80;1.23;;;22.90;41.70;;;;;;5095926;28;20043;-67
2022/06/20 11:23:32;;;;;;;2.70;0.98;;;22.80;41.70;;;;;;5091253;28;20044;-67
2022/06/20 11:26:31;;;;;;;3.47;1.40;;;22.90;42.30;;;;;;5091312;28;20044;-67
2022/06/20 11:29:05;;;;;;;2.40;1.10;;;22.90;42.30;;;;;;5077528;28;20031;-67
2022/06/20 11:31:37;;;;;;;3.10;1.30;;;23.00;42.70;;;;;;5082601;28;20282;-67
2022/06/20 11:34:24;;;;;;;3.90;1.55;;;23.00;42.80;;;;;;5092094;28;20093;-67
2022/06/20 11:37:15;;;;;;;2.78;1.20;;;22.80;42.70;;;;;;5051509;28;20032;-67
2022/06/20 11:39:59;;;;;;;2.75;1.10;;;22.60;43.20;;;;;;5100389;28;20028;-67
2022/06/20 11:42:54;;;;;;;4.22;1.50;;;22.50;43.60;;;;;;5097631;28;20058;-67
2022/06/20 11:45:48;;;;;;;3.10;1.10;;;22.60;43.40;;;;;;5094292;28;20042;-68
2022/06/20 11:48:35;;;;;;;2.63;1.00;;;22.70;43.30;;;;;;5102318;28;20027;-67
2022/06/20 11:51:22;;;;;;;2.92;1.45;;;22.60;43.20;;;;;;5070765;28;20108;-67
2022/06/20 11:54:05;;;;;;;2.55;1.30;;;22.40;43.40;;;;;;5083309;28;20430;-67
2022/06/20 11:56:54;;;;;;;3.03;1.40;;;22.50;43.40;;;;;;5090932;28;20398;-67
2022/06/20 11:59:50;;;;;;;3.15;1.30;;;22.60;43.00;;;;;;5098875;28;20023;-67
2022/06/20 12:02:34;;;;;;;3.55;1.10;;;22.80;42.60;;;;;;5101149;28;20080;-68
2022/06/20 12:05:41;;;;;;;3.38;1.33;;;22.90;41.90;;;;;;5088825;28;20355;-67
2022/06/20 12:08:24;;;;;;;2.88;1.23;;;23.20;41.40;;;;;;5085966;28;20027;-67
2022/06/20 12:10:59;;;;;;;3.78;1.63;;;23.50;41.30;;;;;;5087329;28;20118;-67
2022/06/20 12:13:43;;;;;;;2.63;1.05;;;23.80;40.60;;;;;;5084625;28;20020;-67
2022/06/20 12:16:46;;;;;;;2.83;1.25;;;23.90;40.50;;;;;;5082593;28;20021;-67
2022/06/20 12:25:21;;;;;;;3.38;1.23;;;24.50;40.70;;;;;;5101638;28;19965;-67
2022/06/20 12:27:47;;;;;;;3.00;1.20;;;24.70;39.40;;;;;;5086111;28;20934;-68
2022/06/20 12:30:17;;;;;;;2.53;1.17;;;24.50;38.60;;;;;;5088532;28;20036;-67
2022/06/20 12:32:45;;;;;;;1.75;0.93;;;24.20;38.70;;;;;;5082173;28;20020;-67
2022/06/20 12:35:33;;;;;;;3.05;1.00;;;24.00;39.40;;;;;;5101399;28;20175;-67
2022/06/20 12:38:21;;;;;;;2.58;1.08;;;23.90;40.00;;;;;;5069873;28;20059;-67
2022/06/20 12:40:52;;;;;;;2.13;1.00;;;23.80;40.50;;;;;;5092245;28;20031;-67
2022/06/20 12:43:23;;;;;;;3.22;1.05;;;23.70;40.90;;;;;;5086235;28;20029;-67
2022/06/20 12:46:17;;;;;;;2.07;1.10;;;23.60;41.10;;;;;;5089874;28;20493;-67
2022/06/20 12:48:51;;;;;;;2.58;1.10;;;23.50;41.10;;;;;;5101674;28;20055;-66
2022/06/20 12:51:46;;;;;;;4.90;1.45;;;23.50;41.10;;;;;;5095738;28;20028;-66
2022/06/20 12:54:42;;;;;;;3.47;1.33;;;23.50;41.30;;;;;;5077242;28;20025;-66
2022/06/20 12:57:36;;;;;;;3.28;1.35;;;23.50;41.20;;;;;;5069969;28;20033;-66
2022/06/20 13:00:36;;;;;;;3.28;1.40;;;23.20;41.50;;;;;;5087717;28;20024;-66
2022/06/20 13:03:41;;;;;;;2.55;1.50;;;23.00;42.10;;;;;;5086002;28;20458;-66
2022/06/20 13:06:32;;;;;;;3.70;1.48;;;23.00;42.40;;;;;;5102350;28;20081;-67
2022/06/20 13:09:04;;;;;;;4.57;1.60;;;22.90;42.60;;;;;;5082119;28;20047;-66
2022/06/20 13:11:49;;;;;;;3.33;1.40;;;22.90;43.00;;;;;;5087936;28;20527;-67
2022/06/20 13:14:45;;;;;;;4.25;1.30;;;23.00;43.00;;;;;;5086324;28;20487;-66
2022/06/20 13:17:41;;;;;;;3.58;1.23;;;22.80;43.00;;;;;;5062310;28;20039;-66
2022/06/20 13:20:15;;;;;;;3.15;1.20;;;22.70;43.50;;;;;;5086465;28;20063;-67
2022/06/20 13:23:18;;;;;;;2.63;1.33;;;22.70;43.80;;;;;;5091383;28;20060;-66
2022/06/20 13:25:52;;;;;;;3.22;1.30;;;22.80;44.10;;;;;;5090208;28;20032;-66
2022/06/20 13:28:20;;;;;;;4.35;1.50;;;22.70;44.20;;;;;;5079164;28;20039;-66
2022/06/20 13:31:09;;;;;;;6.25;1.50;;;22.70;44.50;;;;;;5101742;28;20024;-67
2022/06/20 13:33:49;;;;;;;4.05;1.33;;;22.90;44.70;;;;;;5077453;28;20017;-66
2022/06/20 13:36:21;;;;;;;4.35;1.48;;;22.80;44.60;;;;;;5078322;28;20086;-66
2022/06/20 13:39:05;;;;;;;3.80;1.40;;;22.80;44.30;;;;;;5090574;28;20108;-66
2022/06/20 13:41:44;;;;;;;3.05;1.35;;;22.80;44.30;;;;;;5100292;28;20393;-66
2022/06/20 13:44:33;;;;;;;3.80;1.30;;;22.90;44.10;;;;;;5075916;28;20029;-66
2022/06/20 13:47:20;;;;;;;2.58;1.10;;;23.00;43.90;;;;;;5081458;28;20016;-66
2022/06/20 13:50:02;;;;;;;3.58;1.27;;;23.00;43.90;;;;;;5109903;28;20638;-66
2022/06/20 13:52:33;;;;;;;4.05;1.50;;;22.80;43.90;;;;;;5106759;28;20152;-66
2022/06/20 13:54:58;;;;;;;4.13;1.48;;;22.80;44.70;;;;;;5093774;28;20102;-66
2022/06/20 13:57:42;;;;;;;3.25;1.15;;;22.70;45.00;;;;;;5090196;28;20431;-66